RJFN(METAR)
12/11 17:00
METAR RJFN 110800Z 31004KT 9999 -RA FEW002 SCT025 OVC070 12/12 Q1018
RMK 1ST002 4SC025 8AS070 A3008=
戻る
トップページへ戻る
IMOC Co,.Ltd.